KDPA/DPA METAR and TAF weather

Enter ICAO airport designator
Station Type Date Time Source
KDPA METAR 2020/09/24 10:52 UTC NOAA

KDPA 241052Z 17004KT 10SM CLR 11/09 A2995 RMK AO2 SLP141 T01110089


Station Type Date Time Source
KDPA Decoded METAR 2020/09/24 10:52 UTC NOAA

CHICAGO/WEST CH DUPAGE, IL, United States (KDPA) 41-54N 88-15W 230M
Sep 24, 2020 - 06:52 AM EDT / 2020.09.24 1052 UTC
Wind: from the S (170 degrees) at 5 MPH (4 KT):0
Visibility: 10 mile(s):0
Sky conditions: clear
Temperature: 52.0 F (11.1 C)
Dew Point: 48.0 F (8.9 C)
Relative Humidity: 86%
Pressure (altimeter): 29.95 in. Hg (1014 hPa)
ob: KDPA 241052Z 17004KT 10SM CLR 11/09 A2995 RMK AO2 SLP141 T01110089
cycle: 11

Station Type Date Time Source
KDPA TAF 2020/09/24 12:22 UTC NOAA

TAF KDPA 241120Z 2412/2512 19005KT P6SM FEW040 FEW300
TEMPO 2412/2413 5SM MIFG
FM241600 23011KT P6SM SCT045 BKN150
FM250000 19006KT P6SM FEW040 SCT150

Example: see airport list